Follett, TX (79034)

4:09 AM CDT on July 22, 2014 (GMT -0500)
Barnes - Farm (KOKGAGE2) Elev 2220 ft | 36.28 °N, 99.80 °W | Change Station

Current weather conditions updated 1 second ago

Clear
Clear
76.4 °F
Feels Like 78 °F
N
6.0
Wind Variable Wind from WSW
Gusts 8.0 mph

Today is forecast to be nearly the same temperature as yesterday.

Today
High -- | Low -- °F
--% Chance of Precip.
Yesterday
High -- | Low -- °F
Precip. -- in
6:39 AM 8:54 PM
Waning Crescent, 18% visible
Pressure 29.92 in
Visibility 10.0 miles
Clouds Clear
Heat Index 78 °F
Dew Point 70 °F
Humidity 81%
Rainfall 0.00 in
Snow Depth Not available.
UV 0.0 out of 12
Pollen 5.70 out of 12
Air Quality Not available.
Flu Activity Sporadic
METAR KGAG 220853Z AUTO 16010KT 10SM CLR 24/20 A3003 RMK AO2 SLP132 T02390200 58020

More Conditions Fewer Conditions

Pressure 29.92 in
Visibility 10.0 miles
Clouds Clear
Heat Index 78 °F
Dew Point 70 °F
Humidity 81%
Rainfall 0.00 in
Snow Depth Not available.
UV 0.0 out of 12
Pollen 5.70 out of 12
Air Quality Not available.
Flu Activity Sporadic
METAR KGAG 220853Z AUTO 16010KT 10SM CLR 24/20 A3003 RMK AO2 SLP132 T02390200 58020

More Conditions Fewer Conditions

10-Day Weather Forecast

LIGHTNING

Thunderstorms are forecast for your area. Cloud conditions might be right for producing strikes in the next few days, though lightning itself cannot be forecasted.

Lightning is a visible electrical discharge produced by a thunderstorm, based on the build up of oppositely charged particles within a cloud and from cloud to ground.

Know how to stay safe in a lightning storm.

Check out these Lightning WunderPhotos!

Almanac

Astronomy

Jul. 22, 2014 Rise Set
Actual Time 6:39 AM CDT 8:54 PM CDT
Civil Twilight 6:10 AM CDT 9:23 PM CDT
Nautical Twilight 5:34 AM CDT 9:59 PM CDT
Astronomical Twilight 4:55 AM CDT 10:38 PM CDT
Moon 3:12 AM CDT 5:34 PM CDT
Length of Visible Light 15h 13m
Length of Day
14h 15m
Tomorrow will be 1m 26s shorter.
Waning Crescent, 18% of the Moon is Illuminated
Today
Waning Crescent
Jul 26
New
Aug 3
First Quarter
Aug 10
Full
Aug 17
Last Quarter

Today's Extremes

State Highs State Lows

Community

WunderPhotos

Upload Photos

1,736,195 photos uploaded!

Nearby

Snow Depth

Station Depth Elevation
No new snow has been reported.

Earthquake Activity

City Distance Mag. Time & Date
Cherokee, Oklahoma 108 miles 2.5 10:35 AM CDT
2014-07-17
Minimum magnitude displayed is 2.5.

Coastal Water Temperatures

Place Temperature
No Stations Reporting

Nearby Weather Stations

Station Location Temp. Heat Index Dew Point Humidity Wind Precip. Elev Updated Type
Barnes - Farm, Gage, OK 76.4 °F 78 °F 70 °F 81% WSW  at  6.0 mph 0.00 in / hr 2220 ft 4:09 AM CDT Rapid Fire
Zender Laundromat, Booker, TX 74.7 °F 74 °F 71 °F 88% SSE  at  3.8 mph 0.00 in / hr 2844 ft 2:45 AM CDT Rapid Fire

Show More Stations Show Fewer Stations